Time;durP1;ratioP1;P1;durP2;ratioP2;P2;SDS_P1;SDS_P2;PMS_P1;PMS_P2;Temp;Humidity;BMP_temperature;BMP_pressure;BME280_temperature;BME280_humidity;BME280_pressure;Samples;Min_cycle;Max_cycle;Signal;HPM_P1;HPM_P2
2020/12/12 00:00:45;;;;;;;27.27;20.10;;;;;;;;;;5054269;28;20220;-65
2020/12/12 00:03:11;;;;;;;33.38;20.48;;;;;;;;;;5054149;28;20666;-65
2020/12/12 00:05:39;;;;;;;24.08;19.92;;;;;;;;;;5054404;28;20205;-66
2020/12/12 00:08:05;;;;;;;27.95;21.10;;;;;;;;;;5054500;28;20218;-66
2020/12/12 00:10:33;;;;;;;24.15;20.52;;;;;;;;;;5053967;28;20199;-66
2020/12/12 00:13:00;;;;;;;27.55;20.63;;;;;;;;;;5054031;28;20196;-65
2020/12/12 00:15:27;;;;;;;28.50;22.10;;;;;;;;;;5052515;28;20200;-65
2020/12/12 00:17:53;;;;;;;31.30;20.90;;;;;;;;;;5054385;28;20564;-65
2020/12/12 00:20:20;;;;;;;30.08;21.13;;;;;;;;;;5054096;28;20212;-65
2020/12/12 00:22:46;;;;;;;27.83;20.25;;;;;;;;;;5053749;28;20205;-65
2020/12/12 00:25:13;;;;;;;28.67;20.88;;;;;;;;;;5053727;28;20204;-65
2020/12/12 00:27:40;;;;;;;24.92;19.52;;;;;;;;;;5053809;28;20545;-65
2020/12/12 00:30:06;;;;;;;22.23;18.10;;;;;;;;;;5053913;28;20238;-65
2020/12/12 00:32:34;;;;;;;21.27;17.95;;;;;;;;;;5053550;28;20420;-65
2020/12/12 00:35:01;;;;;;;22.50;19.10;;;;;;;;;;5054012;28;20209;-65
2020/12/12 00:37:37;;;;;;;23.08;18.15;;;;;;;;;;5053428;28;20230;-65
2020/12/12 00:40:05;;;;;;;19.17;16.80;;;;;;;;;;5053444;28;20224;-65
2020/12/12 00:42:31;;;;;;;22.70;17.92;;;;;;;;;;5053504;28;20197;-65
2020/12/12 00:44:58;;;;;;;18.70;15.98;;;;;;;;;;5053842;28;20651;-65
2020/12/12 00:47:27;;;;;;;20.67;17.13;;;;;;;;;;5052471;28;20283;-65
2020/12/12 00:49:54;;;;;;;21.70;17.50;;;;;;;;;;5053574;28;20555;-65
2020/12/12 00:52:20;;;;;;;23.13;17.65;;;;;;;;;;5053196;28;20275;-65
2020/12/12 00:54:47;;;;;;;21.27;16.73;;;;;;;;;;5053842;28;20195;-65
2020/12/12 00:57:17;;;;;;;20.00;15.93;;;;;;;;;;5053303;28;20193;-65
2020/12/12 00:59:44;;;;;;;19.23;16.35;;;;;;;;;;5053198;28;20224;-65
2020/12/12 01:02:15;;;;;;;22.52;16.33;;;;;;;;;;5053560;28;20640;-65
2020/12/12 01:04:42;;;;;;;19.08;15.20;;;;;;;;;;5053364;28;20189;-65
2020/12/12 01:07:09;;;;;;;22.75;17.67;;;;;;;;;;5053393;28;20189;-66
2020/12/12 01:09:38;;;;;;;19.83;17.73;;;;;;;;;;5053218;28;20207;-65
2020/12/12 01:12:04;;;;;;;19.08;16.98;;;;;;;;;;5053243;28;20215;-65
2020/12/12 01:14:31;;;;;;;23.80;18.85;;;;;;;;;;5053239;28;20667;-66
2020/12/12 01:16:59;;;;;;;21.50;17.95;;;;;;;;;;5052242;28;20228;-65
2020/12/12 01:19:26;;;;;;;19.65;16.70;;;;;;;;;;5053123;28;20207;-66
2020/12/12 01:21:53;;;;;;;20.95;17.50;;;;;;;;;;5053534;28;20246;-65
2020/12/12 01:24:20;;;;;;;21.52;16.40;;;;;;;;;;5052080;28;20189;-65
2020/12/12 01:26:48;;;;;;;21.33;17.38;;;;;;;;;;5053504;28;20203;-66
2020/12/12 01:29:15;;;;;;;22.13;17.17;;;;;;;;;;5053185;28;20825;-65
2020/12/12 01:31:41;;;;;;;21.13;17.17;;;;;;;;;;5053123;28;20189;-66
2020/12/12 01:34:08;;;;;;;18.75;16.10;;;;;;;;;;5053679;28;20204;-66
2020/12/12 01:36:38;;;;;;;25.25;18.45;;;;;;;;;;5055573;28;20275;-65
2020/12/12 01:39:04;;;;;;;30.35;23.20;;;;;;;;;;5056990;28;20656;-66
2020/12/12 01:41:31;;;;;;;86.72;50.15;;;;;;;;;;5057011;28;20242;-66
2020/12/12 01:44:00;;;;;;;93.32;57.30;;;;;;;;;;5056606;28;20188;-65
2020/12/12 01:46:27;;;;;;;51.47;31.95;;;;;;;;;;5056991;28;20196;-66
2020/12/12 01:48:55;;;;;;;54.78;33.40;;;;;;;;;;5056744;28;20644;-66
2020/12/12 01:51:25;;;;;;;36.50;23.73;;;;;;;;;;5056489;28;20223;-66
2020/12/12 01:53:55;;;;;;;30.80;23.50;;;;;;;;;;5056496;28;20200;-66
2020/12/12 01:56:22;;;;;;;29.15;23.52;;;;;;;;;;5056454;28;20583;-66
2020/12/12 01:58:51;;;;;;;31.77;21.10;;;;;;;;;;5056375;28;20220;-66
2020/12/12 02:01:21;;;;;;;26.52;21.10;;;;;;;;;;5056353;28;20662;-66
2020/12/12 02:03:49;;;;;;;25.77;18.90;;;;;;;;;;5056199;28;20195;-66
2020/12/12 02:06:19;;;;;;;20.92;18.35;;;;;;;;;;5056200;28;20177;-66
2020/12/12 02:08:53;;;;;;;19.80;16.98;;;;;;;;;;5055970;28;20275;-66
2020/12/12 02:11:20;;;;;;;19.83;17.02;;;;;;;;;;5056078;28;20196;-66
2020/12/12 02:13:49;;;;;;;24.33;18.35;;;;;;;;;;5054728;28;20197;-66
2020/12/12 02:16:16;;;;;;;28.60;18.50;;;;;;;;;;5056586;28;20205;-66
2020/12/12 02:18:43;;;;;;;20.30;17.40;;;;;;;;;;5054646;28;20207;-66
2020/12/12 02:21:10;;;;;;;20.60;16.77;;;;;;;;;;5056216;28;20196;-66
2020/12/12 02:23:36;;;;;;;26.40;18.48;;;;;;;;;;5055806;28;20379;-66
2020/12/12 02:26:03;;;;;;;23.63;17.90;;;;;;;;;;5055726;28;20200;-66
2020/12/12 02:28:40;;;;;;;21.83;18.02;;;;;;;;;;5054531;28;20564;-66
2020/12/12 02:31:07;;;;;;;20.00;16.20;;;;;;;;;;5056036;28;20188;-66
2020/12/12 02:33:34;;;;;;;21.38;16.73;;;;;;;;;;5055904;28;20565;-66
2020/12/12 02:36:06;;;;;;;18.73;16.13;;;;;;;;;;5055839;28;20299;-66
2020/12/12 02:38:32;;;;;;;19.52;15.25;;;;;;;;;;5055845;28;20200;-66
2020/12/12 02:41:00;;;;;;;17.60;15.40;;;;;;;;;;5055585;28;20192;-66
2020/12/12 02:43:27;;;;;;;20.60;17.00;;;;;;;;;;5054631;28;20200;-66
2020/12/12 02:45:54;;;;;;;19.30;15.50;;;;;;;;;;5055141;28;20378;-65
2020/12/12 02:48:20;;;;;;;20.02;16.02;;;;;;;;;;5055645;28;20217;-65
2020/12/12 02:50:49;;;;;;;17.25;15.45;;;;;;;;;;5055252;28;20272;-66
2020/12/12 02:53:16;;;;;;;20.23;16.45;;;;;;;;;;5055385;28;20267;-66
2020/12/12 02:55:44;;;;;;;22.98;17.65;;;;;;;;;;5053588;28;20197;-66
2020/12/12 02:58:10;;;;;;;21.90;17.10;;;;;;;;;;5055189;28;20185;-66
2020/12/12 03:00:36;;;;;;;20.75;16.85;;;;;;;;;;5054129;28;20274;-66
2020/12/12 03:03:03;;;;;;;20.83;16.85;;;;;;;;;;5071112;28;20188;-65
2020/12/12 03:05:32;;;;;;;19.77;15.88;;;;;;;;;;5074011;28;20533;-65
2020/12/12 03:07:59;;;;;;;17.80;15.73;;;;;;;;;;5075094;28;20271;-65
2020/12/12 03:10:25;;;;;;;17.13;15.25;;;;;;;;;;5074967;28;20279;-65
2020/12/12 03:12:52;;;;;;;17.15;14.45;;;;;;;;;;5075084;28;20222;-65
2020/12/12 03:15:19;;;;;;;17.20;14.13;;;;;;;;;;5074914;28;20192;-66
2020/12/12 03:17:51;;;;;;;19.85;15.52;;;;;;;;;;5074893;28;20227;-66
2020/12/12 03:20:17;;;;;;;17.83;15.38;;;;;;;;;;5074685;28;20223;-65
2020/12/12 03:22:47;;;;;;;20.42;15.82;;;;;;;;;;5074762;28;20188;-65
2020/12/12 03:25:13;;;;;;;19.05;14.30;;;;;;;;;;5074799;28;20188;-65
2020/12/12 03:27:40;;;;;;;20.75;15.05;;;;;;;;;;5074656;28;20643;-65
2020/12/12 03:30:09;;;;;;;22.20;16.42;;;;;;;;;;5074369;28;20236;-65
2020/12/12 03:32:37;;;;;;;22.67;17.73;;;;;;;;;;5074429;28;20682;-65
2020/12/12 03:35:04;;;;;;;22.13;16.50;;;;;;;;;;5074492;28;20200;-65
2020/12/12 03:37:32;;;;;;;23.10;18.40;;;;;;;;;;5074378;28;20203;-66
2020/12/12 03:39:58;;;;;;;20.58;17.85;;;;;;;;;;5074629;28;20216;-66
2020/12/12 03:42:25;;;;;;;22.52;18.58;;;;;;;;;;5074534;28;20227;-66
2020/12/12 03:44:53;;;;;;;23.60;18.67;;;;;;;;;;5073289;28;20204;-66
2020/12/12 03:47:19;;;;;;;22.70;17.67;;;;;;;;;;5074499;28;20183;-66
2020/12/12 03:49:46;;;;;;;22.70;19.05;;;;;;;;;;5073219;28;20238;-66
2020/12/12 03:52:12;;;;;;;22.80;17.88;;;;;;;;;;5073992;28;20574;-66
2020/12/12 03:54:39;;;;;;;23.25;18.23;;;;;;;;;;5074170;28;20200;-66
2020/12/12 03:57:07;;;;;;;22.10;18.20;;;;;;;;;;5073772;28;20237;-66
2020/12/12 03:59:38;;;;;;;21.50;18.40;;;;;;;;;;5073505;28;20579;-66
2020/12/12 04:02:04;;;;;;;23.55;17.38;;;;;;;;;;5062515;28;20200;-66
2020/12/12 04:04:33;;;;;;;27.90;19.02;;;;;;;;;;5052741;28;20250;-66
2020/12/12 04:06:59;;;;;;;24.08;18.40;;;;;;;;;;5052896;28;20643;-66
2020/12/12 04:09:26;;;;;;;23.77;17.42;;;;;;;;;;5053872;28;20189;-66
2020/12/12 04:11:52;;;;;;;28.85;18.13;;;;;;;;;;5054106;28;20224;-66
2020/12/12 04:14:20;;;;;;;20.83;17.40;;;;;;;;;;5053928;28;20221;-66
2020/12/12 04:16:49;;;;;;;20.10;17.00;;;;;;;;;;5053765;28;20559;-66
2020/12/12 04:19:16;;;;;;;18.92;15.77;;;;;;;;;;5053788;28;20220;-64
2020/12/12 04:21:43;;;;;;;20.17;17.48;;;;;;;;;;5054032;28;20201;-65
2020/12/12 04:24:10;;;;;;;20.48;17.23;;;;;;;;;;5053802;28;20287;-65
2020/12/12 04:26:39;;;;;;;20.40;17.75;;;;;;;;;;5053950;28;20184;-65
2020/12/12 04:29:05;;;;;;;21.92;18.35;;;;;;;;;;5053557;28;20688;-65
2020/12/12 04:31:32;;;;;;;21.92;17.23;;;;;;;;;;5053646;28;20180;-65
2020/12/12 04:34:00;;;;;;;21.98;16.45;;;;;;;;;;5053636;28;20192;-65
2020/12/12 04:36:29;;;;;;;21.30;16.35;;;;;;;;;;5053630;28;20192;-65
2020/12/12 04:38:57;;;;;;;20.27;16.67;;;;;;;;;;5054004;28;20231;-65
2020/12/12 04:41:27;;;;;;;21.75;17.00;;;;;;;;;;5052448;28;20242;-65
2020/12/12 04:43:55;;;;;;;18.27;15.45;;;;;;;;;;5052385;28;20648;-65
2020/12/12 04:46:22;;;;;;;22.83;17.38;;;;;;;;;;5053470;28;20246;-65
2020/12/12 04:48:54;;;;;;;18.48;15.20;;;;;;;;;;5052100;28;20220;-65
2020/12/12 04:51:25;;;;;;;23.15;15.93;;;;;;;;;;5052620;28;20652;-65
2020/12/12 04:53:57;;;;;;;18.90;16.35;;;;;;;;;;5053353;28;20184;-65
2020/12/12 04:56:24;;;;;;;17.88;15.80;;;;;;;;;;5053733;28;20193;-65
2020/12/12 04:58:52;;;;;;;22.42;16.90;;;;;;;;;;5053269;28;20250;-65
2020/12/12 05:01:21;;;;;;;20.52;16.35;;;;;;;;;;5053356;28;20627;-65
2020/12/12 05:03:47;;;;;;;20.75;16.27;;;;;;;;;;5052078;28;20651;-65
2020/12/12 05:06:15;;;;;;;18.58;15.98;;;;;;;;;;5053619;28;20584;-65
2020/12/12 05:08:43;;;;;;;19.10;16.00;;;;;;;;;;5053628;28;20197;-65
2020/12/12 05:11:09;;;;;;;21.33;16.55;;;;;;;;;;5057245;28;20197;-65
2020/12/12 05:13:36;;;;;;;22.80;16.95;;;;;;;;;;5057126;28;20207;-65
2020/12/12 05:16:03;;;;;;;18.83;16.05;;;;;;;;;;5057138;28;20192;-65
2020/12/12 05:18:30;;;;;;;17.98;15.20;;;;;;;;;;5057294;28;20193;-65
2020/12/12 05:20:57;;;;;;;18.13;15.18;;;;;;;;;;5057868;28;20221;-65
2020/12/12 05:23:24;;;;;;;20.40;17.15;;;;;;;;;;5056895;28;20537;-65
2020/12/12 05:25:55;;;;;;;23.05;16.85;;;;;;;;;;5057508;28;20216;-65
2020/12/12 05:28:24;;;;;;;19.75;16.33;;;;;;;;;;5056885;28;20193;-65
2020/12/12 05:30:53;;;;;;;22.65;16.73;;;;;;;;;;5056783;28;20254;-65
2020/12/12 05:33:21;;;;;;;23.02;17.58;;;;;;;;;;5057027;28;20200;-65
2020/12/12 05:35:50;;;;;;;20.42;16.45;;;;;;;;;;5056941;28;20188;-65
2020/12/12 05:38:17;;;;;;;22.00;17.95;;;;;;;;;;5057110;28;20197;-65
2020/12/12 05:40:48;;;;;;;23.17;17.75;;;;;;;;;;5056613;28;20664;-64
2020/12/12 05:43:17;;;;;;;20.27;15.73;;;;;;;;;;5056759;28;20197;-64
2020/12/12 05:45:46;;;;;;;21.08;16.88;;;;;;;;;;5056469;28;20203;-64
2020/12/12 05:48:15;;;;;;;24.23;17.35;;;;;;;;;;5056404;28;20266;-65
2020/12/12 05:50:42;;;;;;;21.35;15.98;;;;;;;;;;5056010;28;20207;-65
2020/12/12 05:53:10;;;;;;;21.95;18.83;;;;;;;;;;5056568;28;20648;-65
2020/12/12 05:55:39;;;;;;;19.70;16.73;;;;;;;;;;5055128;28;20636;-65
2020/12/12 05:58:06;;;;;;;20.73;17.15;;;;;;;;;;5056372;28;20652;-64
2020/12/12 06:00:35;;;;;;;26.88;20.48;;;;;;;;;;5056146;28;20247;-65
2020/12/12 06:03:06;;;;;;;21.70;17.83;;;;;;;;;;5056507;28;20204;-65
2020/12/12 06:05:39;;;;;;;22.60;17.90;;;;;;;;;;5056274;28;20200;-64
2020/12/12 06:08:06;;;;;;;24.02;18.42;;;;;;;;;;5056136;28;20537;-65
2020/12/12 06:10:34;;;;;;;23.80;19.27;;;;;;;;;;5056445;28;20193;-66
2020/12/12 06:13:06;;;;;;;22.95;18.52;;;;;;;;;;5055987;28;20231;-65
2020/12/12 06:15:40;;;;;;;20.50;18.30;;;;;;;;;;5039072;28;20203;-65
2020/12/12 06:18:17;;;;;;;26.23;18.38;;;;;;;;;;5056527;28;20203;-64
2020/12/12 06:20:48;;;;;;;23.83;18.45;;;;;;;;;;5055616;28;20335;-65
2020/12/12 06:23:14;;;;;;;26.67;17.50;;;;;;;;;;5056683;28;20177;-65
2020/12/12 06:25:44;;;;;;;22.08;17.52;;;;;;;;;;5055840;28;20204;-65
2020/12/12 06:28:17;;;;;;;27.10;20.10;;;;;;;;;;5055868;28;20639;-65
2020/12/12 06:30:46;;;;;;;25.77;18.60;;;;;;;;;;5055441;28;20228;-64
2020/12/12 06:33:13;;;;;;;25.38;20.20;;;;;;;;;;5055649;28;20663;-64
2020/12/12 06:35:42;;;;;;;24.25;19.08;;;;;;;;;;5055612;28;20204;-65
2020/12/12 06:38:17;;;;;;;24.23;17.95;;;;;;;;;;5055648;28;20184;-65
2020/12/12 06:40:44;;;;;;;26.15;19.23;;;;;;;;;;5055596;28;20615;-64
2020/12/12 06:43:29;;;;;;;27.95;19.27;;;;;;;;;;5055592;28;20208;-64
2020/12/12 06:45:56;;;;;;;23.88;18.20;;;;;;;;;;5055862;28;20640;-64
2020/12/12 06:48:23;;;;;;;26.85;19.45;;;;;;;;;;5055646;28;20205;-64
2020/12/12 06:50:54;;;;;;;30.33;20.38;;;;;;;;;;5055742;28;20189;-64
2020/12/12 06:53:21;;;;;;;30.25;20.42;;;;;;;;;;5055163;28;20195;-65
2020/12/12 06:56:07;;;;;;;26.33;18.58;;;;;;;;;;5055545;28;20193;-65
2020/12/12 06:58:35;;;;;;;24.75;19.70;;;;;;;;;;5055384;28;20558;-65
2020/12/12 07:01:21;;;;;;;24.42;18.98;;;;;;;;;;5055490;28;20228;-65
2020/12/12 07:03:55;;;;;;;22.67;18.10;;;;;;;;;;5056501;28;20210;-65
2020/12/12 07:06:32;;;;;;;26.70;19.70;;;;;;;;;;5056513;28;20538;-64
2020/12/12 07:09:09;;;;;;;25.80;19.80;;;;;;;;;;5069530;28;20198;-65
2020/12/12 07:11:37;;;;;;;31.10;21.42;;;;;;;;;;5060400;28;20204;-65
2020/12/12 07:14:04;;;;;;;27.88;19.45;;;;;;;;;;5073793;28;20204;-65
2020/12/12 07:16:31;;;;;;;29.05;19.65;;;;;;;;;;5073045;28;20203;-66
2020/12/12 07:19:00;;;;;;;25.10;19.08;;;;;;;;;;5068410;28;20272;-66
2020/12/12 07:21:27;;;;;;;24.83;18.95;;;;;;;;;;5065188;28;20216;-66
2020/12/12 07:23:53;;;;;;;26.00;17.98;;;;;;;;;;5074182;28;20211;-66
2020/12/12 07:26:22;;;;;;;40.33;27.55;;;;;;;;;;5073919;28;20570;-65
2020/12/12 07:28:48;;;;;;;32.30;22.83;;;;;;;;;;5055977;28;20199;-65
2020/12/12 07:31:16;;;;;;;28.27;21.73;;;;;;;;;;5072844;28;20622;-66
2020/12/12 07:33:46;;;;;;;31.75;22.02;;;;;;;;;;5072988;28;20241;-65
2020/12/12 07:36:13;;;;;;;29.15;20.75;;;;;;;;;;5066370;28;20196;-66
2020/12/12 07:38:40;;;;;;;30.13;21.80;;;;;;;;;;5067157;28;20203;-66
2020/12/12 07:41:11;;;;;;;30.55;21.83;;;;;;;;;;5073508;28;20219;-66
2020/12/12 07:43:49;;;;;;;31.33;22.20;;;;;;;;;;5073712;28;20647;-66
2020/12/12 07:46:16;;;;;;;31.25;22.95;;;;;;;;;;5072366;28;20200;-66
2020/12/12 07:48:45;;;;;;;31.20;22.40;;;;;;;;;;5073590;28;20232;-66
2020/12/12 07:51:15;;;;;;;27.58;20.73;;;;;;;;;;5074216;28;20194;-66
2020/12/12 07:53:41;;;;;;;28.40;21.65;;;;;;;;;;5072887;28;20211;-66
2020/12/12 07:56:12;;;;;;;32.88;22.00;;;;;;;;;;5072869;28;20180;-66
2020/12/12 07:58:39;;;;;;;33.05;22.67;;;;;;;;;;5073720;28;20282;-66
2020/12/12 08:01:06;;;;;;;34.85;23.35;;;;;;;;;;5073948;28;20211;-66
2020/12/12 08:03:33;;;;;;;33.63;22.73;;;;;;;;;;5074150;28;20184;-66
2020/12/12 08:06:09;;;;;;;35.08;23.55;;;;;;;;;;5073953;28;20249;-66
2020/12/12 08:08:37;;;;;;;36.25;23.20;;;;;;;;;;5073835;28;20267;-66
2020/12/12 08:11:04;;;;;;;32.25;23.15;;;;;;;;;;5074028;28;20196;-66
2020/12/12 08:13:31;;;;;;;32.08;23.08;;;;;;;;;;5072518;28;20245;-66
2020/12/12 08:16:07;;;;;;;31.70;21.75;;;;;;;;;;5074057;28;20196;-66
2020/12/12 08:18:34;;;;;;;31.75;23.13;;;;;;;;;;5072541;28;20203;-66
2020/12/12 08:21:18;;;;;;;29.73;22.33;;;;;;;;;;5074777;28;20220;-66
2020/12/12 08:23:45;;;;;;;28.70;21.00;;;;;;;;;;5073900;28;20191;-66
2020/12/12 08:26:18;;;;;;;37.15;24.05;;;;;;;;;;5073763;28;20643;-66
2020/12/12 08:28:45;;;;;;;31.00;22.08;;;;;;;;;;5073854;28;20536;-66
2020/12/12 08:31:13;;;;;;;32.05;21.98;;;;;;;;;;5072934;28;20267;-66
2020/12/12 08:33:42;;;;;;;35.53;22.45;;;;;;;;;;5073960;28;20563;-66
2020/12/12 08:36:12;;;;;;;29.85;20.33;;;;;;;;;;5073008;28;20206;-66
2020/12/12 08:38:40;;;;;;;33.40;23.52;;;;;;;;;;5073955;28;20231;-66
2020/12/12 08:41:13;;;;;;;32.20;22.45;;;;;;;;;;5074462;28;20239;-66
2020/12/12 08:43:44;;;;;;;33.03;23.83;;;;;;;;;;5074620;28;20564;-65
2020/12/12 08:46:15;;;;;;;29.67;21.00;;;;;;;;;;5079825;28;20204;-65
2020/12/12 08:48:44;;;;;;;26.65;20.10;;;;;;;;;;5078919;28;20216;-66
2020/12/12 08:51:12;;;;;;;28.52;20.52;;;;;;;;;;5080161;28;20208;-65
2020/12/12 08:53:45;;;;;;;27.52;19.85;;;;;;;;;;5080213;28;20288;-66
2020/12/12 08:56:13;;;;;;;26.65;20.48;;;;;;;;;;5080050;28;20195;-66
2020/12/12 08:58:41;;;;;;;28.05;21.25;;;;;;;;;;5080474;28;20199;-66
2020/12/12 09:01:09;;;;;;;28.42;21.35;;;;;;;;;;5079839;28;20302;-67
2020/12/12 09:03:55;;;;;;;27.75;22.10;;;;;;;;;;5080108;28;20172;-67
2020/12/12 09:06:22;;;;;;;34.45;21.20;;;;;;;;;;5078699;28;20203;-66
2020/12/12 09:09:02;;;;;;;26.83;19.25;;;;;;;;;;5080101;28;20183;-66
2020/12/12 09:11:31;;;;;;;36.38;26.30;;;;;;;;;;5080193;28;20180;-66
2020/12/12 09:13:57;;;;;;;27.00;19.60;;;;;;;;;;5078942;28;20196;-66
2020/12/12 09:16:27;;;;;;;26.60;20.50;;;;;;;;;;5079750;28;20188;-66
2020/12/12 09:19:00;;;;;;;24.13;18.30;;;;;;;;;;5079772;28;20176;-66
2020/12/12 09:21:34;;;;;;;27.05;20.65;;;;;;;;;;5079730;28;20306;-66
2020/12/12 09:24:01;;;;;;;30.00;19.73;;;;;;;;;;5079531;28;20183;-67
2020/12/12 09:26:28;;;;;;;25.33;19.63;;;;;;;;;;5079896;28;20198;-66
2020/12/12 09:28:55;;;;;;;28.25;19.63;;;;;;;;;;5079572;28;20231;-66
2020/12/12 09:31:23;;;;;;;27.73;19.88;;;;;;;;;;5079599;28;20206;-66
2020/12/12 09:33:51;;;;;;;25.42;19.17;;;;;;;;;;5079358;28;20588;-66
2020/12/12 09:36:18;;;;;;;30.67;18.25;;;;;;;;;;5079716;28;20188;-66
2020/12/12 09:38:45;;;;;;;28.17;19.35;;;;;;;;;;5079791;28;20633;-66
2020/12/12 09:41:12;;;;;;;22.25;17.55;;;;;;;;;;5078519;28;20228;-66
2020/12/12 09:43:45;;;;;;;24.20;18.35;;;;;;;;;;5079586;28;20192;-66
2020/12/12 09:46:12;;;;;;;22.98;17.17;;;;;;;;;;5079781;28;20603;-66
2020/12/12 09:48:42;;;;;;;25.67;18.75;;;;;;;;;;5080517;28;20223;-65
2020/12/12 09:51:14;;;;;;;21.65;16.92;;;;;;;;;;5079523;28;20211;-65
2020/12/12 09:53:41;;;;;;;20.75;16.65;;;;;;;;;;5079794;28;20642;-65
2020/12/12 09:56:12;;;;;;;20.23;16.55;;;;;;;;;;5076482;28;20192;-65
2020/12/12 09:58:38;;;;;;;20.27;16.48;;;;;;;;;;5075065;28;20204;-65
2020/12/12 10:01:11;;;;;;;20.05;15.93;;;;;;;;;;5076388;28;20192;-66
2020/12/12 10:03:38;;;;;;;18.42;15.82;;;;;;;;;;5076386;28;20589;-66
2020/12/12 10:06:08;;;;;;;25.98;18.27;;;;;;;;;;5076361;28;20196;-66
2020/12/12 10:08:35;;;;;;;25.13;18.13;;;;;;;;;;5076518;28;20204;-66
2020/12/12 10:11:02;;;;;;;22.58;16.95;;;;;;;;;;5075081;28;20200;-66
2020/12/12 10:13:29;;;;;;;21.25;15.95;;;;;;;;;;5076336;28;20200;-66
2020/12/12 10:15:55;;;;;;;18.63;15.75;;;;;;;;;;5076072;28;20208;-66
2020/12/12 10:18:22;;;;;;;20.45;15.43;;;;;;;;;;5075908;28;20199;-65
2020/12/12 10:20:49;;;;;;;17.63;14.82;;;;;;;;;;5074533;28;20667;-65
2020/12/12 10:23:19;;;;;;;21.60;15.68;;;;;;;;;;5075765;28;20214;-66
2020/12/12 10:25:45;;;;;;;17.23;15.20;;;;;;;;;;5075736;28;20639;-65
2020/12/12 10:28:12;;;;;;;19.45;16.05;;;;;;;;;;5075512;28;20192;-66
2020/12/12 10:30:39;;;;;;;17.50;14.65;;;;;;;;;;5075630;28;20238;-66
2020/12/12 10:33:05;;;;;;;22.98;14.30;;;;;;;;;;5074510;28;20642;-66
2020/12/12 10:35:32;;;;;;;17.33;15.15;;;;;;;;;;5075723;28;20206;-66
2020/12/12 10:37:59;;;;;;;16.38;13.90;;;;;;;;;;5075794;28;20208;-66
2020/12/12 10:41:00;;;;;;;18.20;14.77;;;;;;;;;;5075189;28;20235;-65
2020/12/12 10:43:15;;;;;;;17.77;15.23;;;;;;;;;;5075341;28;20564;-65
2020/12/12 10:45:43;;;;;;;22.23;15.40;;;;;;;;;;5075583;28;20207;-66
2020/12/12 10:48:09;;;;;;;16.80;14.10;;;;;;;;;;5075188;28;20249;-66
2020/12/12 10:50:36;;;;;;;16.08;14.45;;;;;;;;;;5074963;28;20196;-66
2020/12/12 10:53:04;;;;;;;17.95;13.45;;;;;;;;;;5075345;28;20203;-66
2020/12/12 10:55:30;;;;;;;15.57;13.35;;;;;;;;;;5075135;28;20192;-66
2020/12/12 10:58:00;;;;;;;14.85;13.30;;;;;;;;;;5075303;28;20207;-65
2020/12/12 11:00:27;;;;;;;14.82;12.45;;;;;;;;;;5074749;28;20228;-65
2020/12/12 11:02:54;;;;;;;14.88;11.82;;;;;;;;;;5074779;28;20200;-65
2020/12/12 11:05:22;;;;;;;15.80;12.65;;;;;;;;;;5075001;28;20245;-65
2020/12/12 11:07:49;;;;;;;16.20;12.57;;;;;;;;;;5074204;28;20240;-65
2020/12/12 11:10:17;;;;;;;17.60;12.57;;;;;;;;;;5074538;28;20204;-65
2020/12/12 11:12:45;;;;;;;13.10;11.05;;;;;;;;;;5074646;28;20206;-65
2020/12/12 11:15:13;;;;;;;11.55;10.32;;;;;;;;;;5075228;28;20188;-66
2020/12/12 11:17:40;;;;;;;11.05;9.95;;;;;;;;;;5075614;28;20203;-66
2020/12/12 11:20:06;;;;;;;11.07;10.10;;;;;;;;;;5074781;28;20188;-66
2020/12/12 11:22:33;;;;;;;9.32;8.52;;;;;;;;;;5074567;28;20203;-66
2020/12/12 11:25:00;;;;;;;8.50;7.72;;;;;;;;;;5078177;28;20198;-66
2020/12/12 11:27:27;;;;;;;9.32;8.50;;;;;;;;;;5076961;28;20207;-66
2020/12/12 11:29:55;;;;;;;14.18;12.82;;;;;;;;;;5074882;28;20699;-66
2020/12/12 11:32:22;;;;;;;9.50;8.65;;;;;;;;;;5074764;28;20702;-66
2020/12/12 11:35:00;;;;;;;12.43;11.27;;;;;;;;;;5074117;28;20223;-66
2020/12/12 11:48:52;;;;;;;7.35;6.85;;;;;;;;;;5074218;28;20216;-66
2020/12/12 11:51:18;;;;;;;6.30;5.90;;;;;;;;;;5074410;28;20298;-66
2020/12/12 11:53:46;;;;;;;6.07;5.60;;;;;;;;;;5074163;28;20212;-66
2020/12/12 11:56:19;;;;;;;6.20;5.45;;;;;;;;;;5073853;28;20291;-66
2020/12/12 11:58:46;;;;;;;6.97;6.45;;;;;;;;;;5072444;28;20208;-65
2020/12/12 12:01:18;;;;;;;7.03;6.30;;;;;;;;;;5073836;28;20677;-66
2020/12/12 12:03:44;;;;;;;11.35;10.43;;;;;;;;;;5074145;28;20603;-66
2020/12/12 12:06:12;;;;;;;11.32;10.27;;;;;;;;;;5073853;28;20275;-65
2020/12/12 12:08:54;;;;;;;8.75;7.82;;;;;;;;;;5074148;28;20196;-65
2020/12/12 12:11:31;;;;;;;9.65;8.70;;;;;;;;;;5073864;28;20259;-66
2020/12/12 12:13:58;;;;;;;8.90;8.05;;;;;;;;;;5072587;28;20608;-66
2020/12/12 12:16:27;;;;;;;9.32;8.48;;;;;;;;;;5073937;28;20203;-66
2020/12/12 12:18:55;;;;;;;10.15;9.15;;;;;;;;;;5071710;28;20315;-66
2020/12/12 12:21:22;;;;;;;10.52;9.50;;;;;;;;;;5073617;28;20220;-66
2020/12/12 12:23:48;;;;;;;12.10;10.70;;;;;;;;;;5074012;28;20204;-66
2020/12/12 12:26:16;;;;;;;13.63;12.23;;;;;;;;;;5073137;28;20581;-66
2020/12/12 12:28:44;;;;;;;14.73;13.32;;;;;;;;;;5073486;28;20295;-66
2020/12/12 12:31:12;;;;;;;24.63;20.40;;;;;;;;;;5073674;28;20604;-66
2020/12/12 12:33:39;;;;;;;15.68;13.50;;;;;;;;;;5074006;28;20207;-66
2020/12/12 12:36:09;;;;;;;17.33;13.60;;;;;;;;;;5073408;28;20219;-65
2020/12/12 12:38:36;;;;;;;17.02;13.60;;;;;;;;;;5072676;28;20210;-66
2020/12/12 12:41:02;;;;;;;17.33;14.05;;;;;;;;;;5072272;28;20671;-67
2020/12/12 12:43:30;;;;;;;18.95;14.55;;;;;;;;;;5073733;28;20704;-66
2020/12/12 12:45:57;;;;;;;15.98;14.27;;;;;;;;;;5073472;28;20184;-66
2020/12/12 12:48:24;;;;;;;18.05;14.82;;;;;;;;;;5073454;28;20212;-66
2020/12/12 12:50:50;;;;;;;17.27;14.85;;;;;;;;;;5073641;28;20204;-66
2020/12/12 12:53:19;;;;;;;19.25;14.88;;;;;;;;;;5073194;28;20219;-66
2020/12/12 12:55:50;;;;;;;19.85;15.68;;;;;;;;;;5073203;28;20203;-65
2020/12/12 12:58:18;;;;;;;17.65;15.90;;;;;;;;;;5071940;28;20214;-65
2020/12/12 13:00:47;;;;;;;16.65;14.95;;;;;;;;;;5073131;28;20215;-65
2020/12/12 13:03:14;;;;;;;22.35;17.15;;;;;;;;;;5073363;28;20643;-65
2020/12/12 13:05:41;;;;;;;19.52;17.45;;;;;;;;;;5073754;28;20200;-65
2020/12/12 13:08:08;;;;;;;18.02;14.60;;;;;;;;;;5073404;28;20184;-65
2020/12/12 13:10:35;;;;;;;16.48;14.68;;;;;;;;;;5073256;28;20199;-65
2020/12/12 13:13:03;;;;;;;17.17;14.32;;;;;;;;;;5073442;28;20219;-65
2020/12/12 13:15:35;;;;;;;22.23;17.92;;;;;;;;;;5072150;28;20191;-65
2020/12/12 13:18:06;;;;;;;18.77;15.88;;;;;;;;;;5073339;28;20199;-67
2020/12/12 13:23:29;;;;;;;20.60;13.75;;;;;;;;;;5072503;28;20211;-65
2020/12/12 13:25:56;;;;;;;18.88;15.00;;;;;;;;;;5072860;28;20197;-65
2020/12/12 13:29:36;;;;;;;20.83;16.13;;;;;;;;;;5073002;28;20199;-65
2020/12/12 13:31:29;;;;;;;17.02;13.32;;;;;;;;;;5076130;28;20191;-65
2020/12/12 13:34:01;;;;;;;17.13;15.15;;;;;;;;;;5075654;28;20176;-65
2020/12/12 13:36:28;;;;;;;17.38;15.57;;;;;;;;;;5076731;28;20642;-66
2020/12/12 13:38:55;;;;;;;16.20;13.73;;;;;;;;;;5076593;28;20575;-66
2020/12/12 13:41:27;;;;;;;26.75;23.13;;;;;;;;;;5058499;28;20231;-66
2020/12/12 13:43:54;;;;;;;17.00;15.20;;;;;;;;;;5076640;28;20279;-66
2020/12/12 13:46:24;;;;;;;19.90;15.95;;;;;;;;;;5076546;28;20654;-66
2020/12/12 13:48:50;;;;;;;16.85;14.93;;;;;;;;;;5076668;28;20204;-66
2020/12/12 13:51:18;;;;;;;27.60;15.13;;;;;;;;;;5076643;28;20212;-66
2020/12/12 13:53:48;;;;;;;16.90;14.02;;;;;;;;;;5077099;28;20215;-66
2020/12/12 13:56:15;;;;;;;17.48;14.73;;;;;;;;;;5076950;28;20626;-66
2020/12/12 13:58:44;;;;;;;18.70;15.18;;;;;;;;;;5076234;28;20192;-66
2020/12/12 14:01:11;;;;;;;17.88;15.52;;;;;;;;;;5076395;28;20694;-66
2020/12/12 14:03:37;;;;;;;21.00;13.38;;;;;;;;;;5076216;28;20262;-66
2020/12/12 14:06:07;;;;;;;20.77;14.93;;;;;;;;;;5076198;28;20564;-66
2020/12/12 14:08:55;;;;;;;23.67;18.17;;;;;;;;;;5076195;28;20591;-66
2020/12/12 14:25:10;;;;;;;19.50;16.77;;;;;;;;;;5076033;28;20168;-66
2020/12/12 14:30:24;;;;;;;20.83;16.30;;;;;;;;;;5074482;28;20216;-66
2020/12/12 14:32:55;;;;;;;20.58;14.98;;;;;;;;;;5076130;28;20354;-66
2020/12/12 14:35:24;;;;;;;16.67;14.57;;;;;;;;;;5075592;28;20599;-65
2020/12/12 14:37:51;;;;;;;24.88;17.63;;;;;;;;;;5075606;28;20238;-66
2020/12/12 14:40:18;;;;;;;23.05;16.40;;;;;;;;;;5075631;28;20198;-66
2020/12/12 14:42:44;;;;;;;21.38;18.42;;;;;;;;;;5074825;28;20230;-66
2020/12/12 14:45:11;;;;;;;23.30;16.83;;;;;;;;;;5075805;28;20701;-66
2020/12/12 14:47:37;;;;;;;21.75;18.05;;;;;;;;;;5075588;28;20183;-66
2020/12/12 14:50:04;;;;;;;25.35;19.15;;;;;;;;;;5075776;28;20207;-66
2020/12/12 14:52:32;;;;;;;26.67;20.30;;;;;;;;;;5075332;28;20226;-66
2020/12/12 14:55:00;;;;;;;23.95;21.05;;;;;;;;;;5075360;28;20211;-66
2020/12/12 14:57:28;;;;;;;22.63;18.63;;;;;;;;;;5075176;28;20204;-66